createdAt,value
2022-11-04T00:00:31.594Z,564.3
2022-11-04T00:01:38.336Z,563.5
2022-11-04T00:04:56.461Z,560.4
2022-11-04T00:06:31.952Z,562.2
2022-11-04T00:07:39.217Z,565.1
2022-11-04T00:09:17.990Z,566.8
2022-11-04T00:10:56.682Z,566.3
2022-11-04T00:12:35.427Z,565.2
2022-11-04T00:14:14.167Z,565.1
2022-11-04T00:15:52.885Z,561
2022-11-04T00:17:31.669Z,559
2022-11-04T00:19:10.393Z,560.7
2022-11-04T00:20:49.084Z,560.8
2022-11-04T00:22:27.829Z,558.8
2022-11-04T00:23:35.073Z,561.8
2022-11-04T00:26:35.867Z,559.1
2022-11-04T00:29:51.508Z,556.5
2022-11-04T00:30:58.056Z,558.2
2022-11-04T00:32:04.601Z,564.3
2022-11-04T00:33:11.157Z,561.1
2022-11-04T00:34:17.730Z,559.1
2022-11-04T00:35:24.297Z,564.6
2022-11-04T00:36:30.864Z,555.9
2022-11-04T00:37:37.377Z,559.5
2022-11-04T00:38:43.920Z,558.8
2022-11-04T00:39:50.507Z,560.6
2022-11-04T00:40:57.043Z,555.5
2022-11-04T00:42:03.583Z,556.5
2022-11-04T00:43:10.143Z,559.4
2022-11-04T00:44:16.703Z,559.4
2022-11-04T00:45:23.252Z,558.3
2022-11-04T00:46:29.833Z,559.8
2022-11-04T00:47:36.360Z,558.8
2022-11-04T00:48:43.064Z,556.1
2022-11-04T00:49:49.466Z,558.4
2022-11-04T00:50:56.031Z,553.8
2022-11-04T00:52:02.634Z,555.2
2022-11-04T00:53:09.139Z,561.6
2022-11-04T00:54:15.683Z,559
2022-11-04T00:55:22.247Z,557.5
2022-11-04T00:56:28.797Z,559.9
2022-11-04T00:57:35.586Z,556.7
2022-11-04T00:58:42.381Z,556.2
2022-11-04T00:59:49.174Z,555
2022-11-04T01:00:55.967Z,557.2
2022-11-04T01:02:02.848Z,561.6
2022-11-04T01:03:09.544Z,559.8
2022-11-04T01:04:16.349Z,555.1
2022-11-04T01:05:23.156Z,558.2
2022-11-04T01:06:30.014Z,561.2
2022-11-04T01:07:36.722Z,562.1
2022-11-04T01:08:43.517Z,555.7
2022-11-04T01:09:50.300Z,559.3
2022-11-04T01:10:57.093Z,559.4
2022-11-04T01:12:04.390Z,558.8
2022-11-04T01:13:43.131Z,558.1
2022-11-04T01:15:21.876Z,553.9
2022-11-04T01:17:00.604Z,555.7
2022-11-04T01:18:39.336Z,559.9
2022-11-04T01:20:18.098Z,556.5
2022-11-04T01:21:56.823Z,556.1
2022-11-04T01:23:35.553Z,558.2
2022-11-04T01:25:14.286Z,560.5
2022-11-04T01:26:53.023Z,561.3
2022-11-04T01:28:31.779Z,555
2022-11-04T01:30:10.496Z,556.6
2022-11-04T01:31:49.248Z,558.2
2022-11-04T01:35:57.246Z,560.6
2022-11-04T01:37:03.849Z,559
2022-11-04T01:39:12.961Z,557.9
2022-11-04T01:40:19.543Z,560.8
2022-11-04T01:41:26.060Z,559.3
2022-11-04T01:42:32.600Z,557.5
2022-11-04T01:43:39.158Z,557.4
2022-11-04T01:44:45.729Z,561.5
2022-11-04T01:45:52.301Z,559.2
2022-11-04T01:46:58.931Z,554
2022-11-04T01:48:05.381Z,556.6
2022-11-04T01:49:11.964Z,559
2022-11-04T01:50:18.496Z,559.4
2022-11-04T01:51:25.053Z,561.2
2022-11-04T01:52:31.622Z,559
2022-11-04T01:53:38.166Z,557.1
2022-11-04T01:54:44.713Z,558.5
2022-11-04T01:55:51.271Z,561
2022-11-04T01:56:57.839Z,557.7
2022-11-04T01:58:04.399Z,554.5
2022-11-04T01:59:10.953Z,558.4
2022-11-04T02:00:17.549Z,559.5
2022-11-04T02:01:24.054Z,558.8
2022-11-04T02:02:30.616Z,558.2
2022-11-04T02:03:37.158Z,555
2022-11-04T02:04:43.712Z,558.1
2022-11-04T02:05:50.523Z,554.9
2022-11-04T02:06:57.290Z,560
2022-11-04T02:08:04.065Z,553.7
2022-11-04T02:09:10.862Z,557
2022-11-04T02:10:17.637Z,558.9
2022-11-04T02:11:24.454Z,556.7
2022-11-04T02:12:31.285Z,560.6
2022-11-04T02:13:38.056Z,559.8
2022-11-04T02:14:44.808Z,557
2022-11-04T02:15:51.583Z,558.3
2022-11-04T02:16:58.364Z,558.8
2022-11-04T02:18:05.183Z,556.5
2022-11-04T02:19:11.942Z,554.3
2022-11-04T02:21:51.989Z,558.6
2022-11-04T02:23:30.721Z,554
2022-11-04T02:25:09.444Z,557.8
2022-11-04T02:26:48.190Z,558.6
2022-11-04T02:27:55.446Z,551.5
2022-11-04T02:29:02.715Z,557.2
2022-11-04T02:30:41.435Z,553.6
2022-11-04T02:32:20.179Z,554.4
2022-11-04T02:33:58.912Z,554.7
2022-11-04T02:35:37.666Z,552.3
2022-11-04T02:37:16.397Z,556
2022-11-04T02:38:55.162Z,557.8
2022-11-04T02:40:33.842Z,555.5
2022-11-04T02:44:23.517Z,559.8
2022-11-04T02:45:30.094Z,558
2022-11-04T02:46:36.648Z,557.3
2022-11-04T02:47:43.207Z,560.5
2022-11-04T02:48:49.749Z,559.6
2022-11-04T02:49:56.314Z,556.4
2022-11-04T02:51:02.876Z,554.6
2022-11-04T02:52:09.413Z,554.1
2022-11-04T02:53:15.965Z,555
2022-11-04T02:54:22.541Z,557
2022-11-04T02:55:29.072Z,554.7
2022-11-04T02:56:35.668Z,560.1
2022-11-04T02:57:42.177Z,553.6
2022-11-04T02:58:48.746Z,555.2
2022-11-04T02:59:55.269Z,553.7
2022-11-04T03:01:01.832Z,557.6
2022-11-04T03:02:08.374Z,554.6
2022-11-04T03:03:14.927Z,556.9
2022-11-04T03:04:21.477Z,560.1
2022-11-04T03:05:28.036Z,554.6
2022-11-04T03:06:34.590Z,554.6
2022-11-04T03:07:41.155Z,558.1
2022-11-04T03:08:47.690Z,556.9
2022-11-04T03:09:54.241Z,560
2022-11-04T03:11:00.802Z,557.9
2022-11-04T03:12:07.344Z,560.3
2022-11-04T03:13:14.141Z,554
2022-11-04T03:14:20.927Z,561.1
2022-11-04T03:15:27.712Z,561.2
2022-11-04T03:16:34.512Z,557
2022-11-04T03:17:41.300Z,559.4
2022-11-04T03:18:48.084Z,558.2
2022-11-04T03:19:54.882Z,554.8
2022-11-04T03:21:01.676Z,552.5
2022-11-04T03:22:08.455Z,555.9
2022-11-04T03:23:15.247Z,554.2
2022-11-04T03:24:22.041Z,552.4
2022-11-04T03:25:28.822Z,550
2022-11-04T03:26:35.616Z,557.7
2022-11-04T03:29:15.892Z,558
2022-11-04T03:30:54.650Z,560.4
2022-11-04T03:32:33.356Z,558.3
2022-11-04T03:34:12.092Z,563.6
2022-11-04T03:35:19.364Z,559.2
2022-11-04T03:36:26.622Z,554.7
2022-11-04T03:38:05.352Z,559.1
2022-11-04T03:39:44.093Z,554.4
2022-11-04T03:41:22.826Z,557.7
2022-11-04T03:43:01.562Z,557.9
2022-11-04T03:44:40.287Z,557.8
2022-11-04T03:46:19.015Z,557.4
2022-11-04T03:47:57.760Z,558.9
2022-11-04T03:51:47.344Z,559.4
2022-11-04T03:52:55.653Z,554.8
2022-11-04T03:56:11.571Z,559.6
2022-11-04T03:57:18.370Z,555.6
2022-11-04T03:58:25.162Z,557.3
2022-11-04T03:59:31.966Z,557.2
2022-11-04T04:00:38.741Z,561.5
2022-11-04T04:01:45.561Z,560.9
2022-11-04T04:02:52.320Z,553.8
2022-11-04T04:03:59.207Z,559.8
2022-11-04T04:05:05.902Z,558.8
2022-11-04T04:06:12.684Z,559
2022-11-04T04:07:19.524Z,559.2
2022-11-04T04:08:26.275Z,561.2
2022-11-04T04:09:33.066Z,561.1
2022-11-04T04:10:39.859Z,556.6
2022-11-04T04:11:46.644Z,558.9
2022-11-04T04:12:53.419Z,555.6
2022-11-04T04:14:00.213Z,558.9
2022-11-04T04:15:07.140Z,560.7
2022-11-04T04:16:13.795Z,558.4
2022-11-04T04:17:20.577Z,560.5
2022-11-04T04:18:27.371Z,554.5
2022-11-04T04:19:34.168Z,558.9
2022-11-04T04:20:40.956Z,557.8
2022-11-04T04:21:47.745Z,562.9
2022-11-04T04:22:54.589Z,558
2022-11-04T04:24:40.363Z,558.7
2022-11-04T04:25:47.628Z,557.1
2022-11-04T04:27:26.365Z,561.8
2022-11-04T04:29:05.123Z,556.8
2022-11-04T04:30:43.836Z,553.7
2022-11-04T04:32:22.570Z,559.7
2022-11-04T04:34:01.340Z,558.6
2022-11-04T04:35:40.080Z,557.8
2022-11-04T04:37:18.767Z,559.8
2022-11-04T04:38:57.509Z,555.7
2022-11-04T04:40:36.252Z,559.1
2022-11-04T04:41:43.508Z,558.7
2022-11-04T04:42:50.774Z,559.6
2022-11-04T04:46:58.809Z,555.4
2022-11-04T04:50:14.457Z,560.1
2022-11-04T04:51:21.012Z,555.5
2022-11-04T04:52:27.586Z,558.8
2022-11-04T04:53:34.121Z,556.1
2022-11-04T04:54:40.686Z,559.9
2022-11-04T04:55:47.237Z,559.2
2022-11-04T04:56:53.807Z,556.8
2022-11-04T04:58:00.339Z,556.2
2022-11-04T04:59:06.895Z,557.2
2022-11-04T05:00:13.487Z,558.9
2022-11-04T05:01:20.009Z,559.3
2022-11-04T05:02:26.551Z,561.6
2022-11-04T05:03:33.123Z,562.6
2022-11-04T05:04:39.668Z,564.9
2022-11-04T05:05:46.229Z,558.7
2022-11-04T05:06:52.768Z,556.7
2022-11-04T05:07:59.323Z,562.7
2022-11-04T05:09:05.880Z,560
2022-11-04T05:10:12.430Z,562.2
2022-11-04T05:11:19.004Z,560.3
2022-11-04T05:12:25.532Z,560.2
2022-11-04T05:13:32.117Z,561
2022-11-04T05:14:38.639Z,561.1
2022-11-04T05:15:45.188Z,560.7
2022-11-04T05:16:51.738Z,559
2022-11-04T05:17:58.536Z,551.1
2022-11-04T05:19:05.322Z,556.3
2022-11-04T05:20:12.118Z,562.7
2022-11-04T05:21:18.910Z,555.6
2022-11-04T05:22:25.689Z,559.2
2022-11-04T05:23:32.477Z,557.2
2022-11-04T05:24:39.273Z,556.6
2022-11-04T05:25:46.066Z,561.7
2022-11-04T05:26:52.851Z,556.7
2022-11-04T05:27:59.704Z,556.3
2022-11-04T05:29:06.451Z,560.5
2022-11-04T05:30:13.226Z,557.2
2022-11-04T05:31:20.021Z,560.1
2022-11-04T05:34:38.242Z,555.1
2022-11-04T05:36:16.927Z,562
2022-11-04T05:37:55.665Z,563
2022-11-04T05:39:02.949Z,557.7
2022-11-04T05:40:10.195Z,559.4
2022-11-04T05:41:48.944Z,557.6
2022-11-04T05:43:27.655Z,558.8
2022-11-04T05:45:06.383Z,556.2
2022-11-04T05:46:45.135Z,558.1
2022-11-04T05:48:23.857Z,557.7
2022-11-04T05:50:02.592Z,557
2022-11-04T05:51:41.336Z,560
2022-11-04T05:53:20.076Z,562.3
2022-11-04T05:55:30.906Z,560.9
2022-11-04T05:57:26.326Z,558.6
2022-11-04T05:58:32.867Z,557.3
2022-11-04T05:59:39.424Z,562.8
2022-11-04T06:00:45.969Z,559.7
2022-11-04T06:04:05.628Z,557.9
2022-11-04T06:05:12.185Z,562.6
2022-11-04T06:06:18.761Z,559.3
2022-11-04T06:07:25.315Z,557.5
2022-11-04T06:08:31.838Z,560.2
2022-11-04T06:09:38.396Z,558.1
2022-11-04T06:10:44.949Z,557
2022-11-04T06:11:51.495Z,560.1
2022-11-04T06:12:58.043Z,560.5
2022-11-04T06:14:04.604Z,557.9
2022-11-04T06:15:11.149Z,559.9
2022-11-04T06:16:17.712Z,559.3
2022-11-04T06:17:24.267Z,563.9
2022-11-04T06:18:30.813Z,557.4
2022-11-04T06:19:37.364Z,555.4
2022-11-04T06:20:43.919Z,559.8
2022-11-04T06:21:50.486Z,560.7
2022-11-04T06:22:57.052Z,558.2
2022-11-04T06:24:03.579Z,561.7
2022-11-04T06:25:10.423Z,561.6
2022-11-04T06:26:17.207Z,556.2
2022-11-04T06:27:23.992Z,557.8
2022-11-04T06:28:30.789Z,560.5
2022-11-04T06:29:37.555Z,566
2022-11-04T06:30:44.314Z,558.5
2022-11-04T06:31:51.105Z,563.2
2022-11-04T06:32:57.936Z,557.1
2022-11-04T06:34:04.812Z,560.4
2022-11-04T06:35:11.542Z,562
2022-11-04T06:36:18.328Z,562.5
2022-11-04T06:37:25.158Z,560.5
2022-11-04T06:38:31.871Z,558
2022-11-04T06:41:11.489Z,562.5
2022-11-04T06:42:50.253Z,558.8
2022-11-04T06:44:28.954Z,556.3
2022-11-04T06:46:07.716Z,557.9
2022-11-04T06:47:15.066Z,559.4
2022-11-04T06:48:22.278Z,558.6
2022-11-04T06:50:01.044Z,556.3
2022-11-04T06:51:39.698Z,562.2
2022-11-04T06:53:18.456Z,563.3
2022-11-04T06:54:57.207Z,560.3
2022-11-04T06:56:35.933Z,558.7
2022-11-04T06:58:14.637Z,561.4
2022-11-04T06:59:53.375Z,558.9
2022-11-04T07:03:42.973Z,560.5
2022-11-04T07:04:49.595Z,559.4
2022-11-04T07:05:56.129Z,559.6
2022-11-04T07:07:02.752Z,561
2022-11-04T07:08:09.235Z,563
2022-11-04T07:09:15.794Z,564.2
2022-11-04T07:10:22.389Z,560.6
2022-11-04T07:11:28.936Z,562
2022-11-04T07:12:35.510Z,560.4
2022-11-04T07:13:42.021Z,558.8
2022-11-04T07:14:48.557Z,559.5
2022-11-04T07:15:55.212Z,560.1
2022-11-04T07:17:01.772Z,555.9
2022-11-04T07:18:08.212Z,561.2
2022-11-04T07:19:14.808Z,556.7
2022-11-04T07:20:21.318Z,558.2
2022-11-04T07:21:27.891Z,557.2
2022-11-04T07:22:34.429Z,559.3
2022-11-04T07:23:41.050Z,561.9
2022-11-04T07:24:47.541Z,562.2
2022-11-04T07:25:54.088Z,564.6
2022-11-04T07:27:00.746Z,561.4
2022-11-04T07:28:07.189Z,566.2
2022-11-04T07:29:13.762Z,566.1
2022-11-04T07:30:20.359Z,560.3
2022-11-04T07:31:26.843Z,560.8
2022-11-04T07:32:33.650Z,563.9
2022-11-04T07:33:40.457Z,560.7
2022-11-04T07:34:47.204Z,563.1
2022-11-04T07:35:53.994Z,561.5
2022-11-04T07:37:00.790Z,565.9
2022-11-04T07:38:07.568Z,561.7
2022-11-04T07:39:14.367Z,562.6
2022-11-04T07:40:21.176Z,564.5
2022-11-04T07:41:27.983Z,565.2
2022-11-04T07:42:34.743Z,562.5
2022-11-04T07:43:41.524Z,562.7
2022-11-04T07:44:48.357Z,558.4
2022-11-04T07:45:55.089Z,561.6
2022-11-04T07:48:33.996Z,559.9
2022-11-04T07:50:12.751Z,560.2
2022-11-04T07:51:51.508Z,559.4
2022-11-04T07:53:30.201Z,562.1
2022-11-04T07:54:37.477Z,563.7
2022-11-04T07:55:44.843Z,563.7
2022-11-04T07:57:23.480Z,565
2022-11-04T07:59:02.255Z,562.7
2022-11-04T08:00:40.970Z,566.1
2022-11-04T08:02:19.703Z,562
2022-11-04T08:03:58.518Z,560.5
2022-11-04T08:05:37.243Z,559.8
2022-11-04T08:07:16.016Z,560.1
2022-11-04T08:11:05.487Z,565.1
2022-11-04T08:12:13.751Z,560.4
2022-11-04T08:15:29.439Z,561.1
2022-11-04T08:16:36.074Z,563.1
2022-11-04T08:17:42.581Z,561.9
2022-11-04T08:18:49.128Z,559.6
2022-11-04T08:19:55.687Z,559.3
2022-11-04T08:21:02.198Z,560
2022-11-04T08:22:08.780Z,561.4
2022-11-04T08:23:15.336Z,565.3
2022-11-04T08:24:21.859Z,558.6
2022-11-04T08:25:28.452Z,562.7
2022-11-04T08:26:35.030Z,558.3
2022-11-04T08:27:41.518Z,564.1
2022-11-04T08:28:48.141Z,562.1
2022-11-04T08:29:54.631Z,562.4
2022-11-04T08:31:01.217Z,563.4
2022-11-04T08:32:07.732Z,559.3
2022-11-04T08:33:14.332Z,564.4
2022-11-04T08:34:20.954Z,559.6
2022-11-04T08:35:27.416Z,561.9
2022-11-04T08:36:34.247Z,555.6
2022-11-04T08:37:40.492Z,557.9
2022-11-04T08:38:47.045Z,561.3
2022-11-04T08:39:53.605Z,559.5
2022-11-04T08:41:00.146Z,556
2022-11-04T08:42:06.698Z,559.8
2022-11-04T08:43:13.489Z,559
2022-11-04T08:44:20.290Z,560.9
2022-11-04T08:45:27.078Z,560.8
2022-11-04T08:46:33.902Z,561.9
2022-11-04T08:47:40.669Z,564
2022-11-04T08:48:47.452Z,557.4
2022-11-04T08:49:54.238Z,558.7
2022-11-04T08:51:01.053Z,562.9
2022-11-04T08:52:07.845Z,560.8
2022-11-04T08:53:14.610Z,563.7
2022-11-04T08:54:21.427Z,560
2022-11-04T08:55:28.199Z,564.5
2022-11-04T08:56:34.995Z,558.8
2022-11-04T08:59:53.152Z,560.9
2022-11-04T09:01:28.614Z,564.3
2022-11-04T09:02:35.887Z,562.4
2022-11-04T09:04:14.608Z,563
2022-11-04T09:05:53.487Z,559.7
2022-11-04T09:07:32.078Z,560.6
2022-11-04T09:09:10.825Z,561.6
2022-11-04T09:10:49.615Z,563.3
2022-11-04T09:12:28.297Z,562.2
2022-11-04T09:14:07.077Z,561
2022-11-04T09:15:45.788Z,564.2
2022-11-04T09:17:24.519Z,559.3
2022-11-04T09:18:31.789Z,563.4
2022-11-04T09:21:32.559Z,561.4
2022-11-04T09:24:48.278Z,565.8
2022-11-04T09:25:54.774Z,559.6
2022-11-04T09:27:01.336Z,565.7
2022-11-04T09:28:07.880Z,563.8
2022-11-04T09:29:14.437Z,562.7
2022-11-04T09:30:20.998Z,562.8
2022-11-04T09:31:27.554Z,563.7
2022-11-04T09:32:34.117Z,562.3
2022-11-04T09:33:40.662Z,562.3
2022-11-04T09:34:47.218Z,565.5
2022-11-04T09:35:53.779Z,561.5
2022-11-04T09:37:00.331Z,564.7
2022-11-04T09:38:06.891Z,564
2022-11-04T09:39:13.447Z,565.3
2022-11-04T09:40:19.995Z,561.8
2022-11-04T09:41:26.554Z,560.9
2022-11-04T09:42:33.110Z,560.6
2022-11-04T09:43:39.667Z,565.7
2022-11-04T09:44:46.319Z,567.5
2022-11-04T09:45:52.775Z,563.7
2022-11-04T09:46:59.342Z,565.7
2022-11-04T09:48:05.893Z,563.7
2022-11-04T09:49:12.455Z,567
2022-11-04T09:50:19.027Z,565.7
2022-11-04T09:51:25.564Z,562.8
2022-11-04T09:52:32.405Z,565.7
2022-11-04T09:53:39.147Z,563.7
2022-11-04T09:54:45.948Z,561.8
2022-11-04T09:55:52.785Z,566.6
2022-11-04T09:56:59.534Z,569.4
2022-11-04T09:58:06.326Z,570.2
2022-11-04T09:59:13.109Z,568.6
2022-11-04T10:00:19.901Z,568.1
2022-11-04T10:01:26.702Z,567.6
2022-11-04T10:02:33.480Z,567.6
2022-11-04T10:03:40.276Z,569.9
2022-11-04T10:04:47.055Z,568
2022-11-04T10:05:53.852Z,572.3
2022-11-04T10:07:01.163Z,568.1
2022-11-04T10:08:39.899Z,569.9
2022-11-04T10:10:18.625Z,566.6
2022-11-04T10:11:57.361Z,567
2022-11-04T10:13:36.097Z,570.1
2022-11-04T10:15:14.830Z,568.9
2022-11-04T10:16:53.570Z,569.4
2022-11-04T10:18:32.303Z,568.9
2022-11-04T10:20:11.046Z,568.3
2022-11-04T10:21:49.780Z,573.9
2022-11-04T10:23:28.536Z,575.2
2022-11-04T10:25:07.253Z,573.1
2022-11-04T10:26:46.044Z,576.1
2022-11-04T10:30:54.026Z,583.3
2022-11-04T10:32:00.600Z,594.5
2022-11-04T10:34:09.684Z,591.1
2022-11-04T10:35:16.317Z,596
2022-11-04T10:36:22.796Z,595.1
2022-11-04T10:37:29.388Z,591.8
2022-11-04T10:38:35.897Z,584.8
2022-11-04T10:39:42.450Z,587
2022-11-04T10:40:49.001Z,585.9
2022-11-04T10:41:55.561Z,582.1
2022-11-04T10:43:02.161Z,581
2022-11-04T10:44:08.662Z,581.4
2022-11-04T10:45:15.214Z,580.4
2022-11-04T10:46:21.769Z,579.9
2022-11-04T10:47:28.327Z,579.4
2022-11-04T10:48:34.870Z,580.8
2022-11-04T10:49:41.424Z,576.5
2022-11-04T10:50:47.982Z,579.6
2022-11-04T10:51:54.597Z,577.5
2022-11-04T10:53:01.091Z,575.1
2022-11-04T10:54:07.652Z,579
2022-11-04T10:55:14.211Z,577.5
2022-11-04T10:56:20.822Z,579.3
2022-11-04T10:57:27.448Z,576.7
2022-11-04T10:58:33.981Z,573.1
2022-11-04T10:59:40.475Z,576.5
2022-11-04T11:00:47.273Z,570.8
2022-11-04T11:01:54.027Z,576.5
2022-11-04T11:03:00.848Z,576.4
2022-11-04T11:04:07.599Z,577.1
2022-11-04T11:05:14.394Z,577.7
2022-11-04T11:06:21.263Z,578.3
2022-11-04T11:07:27.981Z,583.2
2022-11-04T11:08:34.764Z,583.8
2022-11-04T11:09:41.583Z,585.8
2022-11-04T11:10:48.342Z,587.6
2022-11-04T11:11:55.141Z,586
2022-11-04T11:13:01.940Z,589.7
2022-11-04T11:14:08.714Z,587
2022-11-04T11:16:49.223Z,585.7
2022-11-04T11:18:27.788Z,586.2
2022-11-04T11:20:06.518Z,589.3
2022-11-04T11:21:45.287Z,586.8
2022-11-04T11:22:52.549Z,586.9
2022-11-04T11:23:59.834Z,582
2022-11-04T11:25:38.618Z,583.7
2022-11-04T11:27:17.253Z,576.1
2022-11-04T11:28:55.988Z,580.8
2022-11-04T11:30:34.729Z,574.6
2022-11-04T11:32:13.483Z,582.3
2022-11-04T11:33:52.206Z,580.1
2022-11-04T11:35:30.995Z,586.9
2022-11-04T11:39:20.606Z,585
2022-11-04T11:40:27.014Z,581.6
2022-11-04T11:41:33.456Z,579
2022-11-04T11:42:39.905Z,579
2022-11-04T11:43:46.316Z,581.5
2022-11-04T11:44:52.826Z,585.6
2022-11-04T11:45:59.216Z,586.3
2022-11-04T11:47:05.643Z,590.3
2022-11-04T11:48:12.079Z,594.2
2022-11-04T11:49:18.509Z,600.9
2022-11-04T11:50:24.935Z,593.4
2022-11-04T11:51:31.355Z,590
2022-11-04T11:52:37.794Z,587.2
2022-11-04T11:53:44.230Z,589.6
2022-11-04T11:54:50.668Z,595.5
2022-11-04T11:55:57.143Z,599.6
2022-11-04T11:57:03.532Z,602.1
2022-11-04T11:58:09.965Z,605.9
2022-11-04T11:59:16.390Z,604.9
2022-11-04T12:00:22.834Z,607.9
2022-11-04T12:01:29.257Z,609.4
2022-11-04T12:02:35.696Z,609.3
2022-11-04T12:04:48.562Z,608.5
2022-11-04T12:05:54.991Z,609.5
2022-11-04T12:07:01.427Z,609.6
2022-11-04T12:08:07.999Z,611.7
2022-11-04T12:09:14.553Z,611.9
2022-11-04T12:10:21.101Z,613.4
2022-11-04T12:11:27.657Z,608.9
2022-11-04T12:13:40.760Z,609.1
2022-11-04T12:14:47.311Z,606.9
2022-11-04T12:15:53.858Z,600.9
2022-11-04T12:17:00.411Z,599.4
2022-11-04T12:18:06.956Z,604.5
2022-11-04T12:19:13.512Z,604.4
2022-11-04T12:20:20.081Z,605.9
2022-11-04T12:21:26.609Z,605.7
2022-11-04T12:23:15.954Z,606.2
2022-11-04T12:24:22.709Z,605.3
2022-11-04T12:25:29.476Z,600.8
2022-11-04T12:26:36.331Z,600.8
2022-11-04T12:27:43.077Z,594.6
2022-11-04T12:28:49.880Z,591.3
2022-11-04T12:29:56.639Z,588.8
2022-11-04T12:31:03.437Z,594.8
2022-11-04T12:32:10.212Z,599.4
2022-11-04T12:33:16.993Z,602.5
2022-11-04T12:34:23.793Z,606.1
2022-11-04T12:35:30.566Z,611.4
2022-11-04T12:36:37.364Z,613.2
2022-11-04T12:39:55.480Z,613.9
2022-11-04T12:41:30.988Z,613.4
2022-11-04T12:42:38.261Z,614.4
2022-11-04T12:44:16.989Z,614
2022-11-04T12:45:55.739Z,612.9
2022-11-04T12:47:34.468Z,609.7
2022-11-04T12:49:13.214Z,609.4
2022-11-04T12:50:51.928Z,610.3
2022-11-04T12:52:30.672Z,605.2
2022-11-04T12:54:09.395Z,601
2022-11-04T12:55:48.132Z,599.2
2022-11-04T12:57:26.869Z,596.1
2022-11-04T12:58:34.121Z,593.1
2022-11-04T13:01:34.850Z,590.4
2022-11-04T13:04:50.403Z,599
2022-11-04T13:05:56.824Z,605.3
2022-11-04T13:07:03.294Z,601.9
2022-11-04T13:08:09.686Z,596.7
2022-11-04T13:09:16.147Z,592
2022-11-04T13:10:22.568Z,596.8
2022-11-04T13:11:28.990Z,590.1
2022-11-04T13:12:35.436Z,588.7
2022-11-04T13:13:41.857Z,583.7
2022-11-04T13:14:48.318Z,583.9
2022-11-04T13:15:54.727Z,591.3
2022-11-04T13:17:01.156Z,597.3
2022-11-04T13:18:07.580Z,602.5
2022-11-04T13:19:14.019Z,600.5
2022-11-04T13:20:20.448Z,600.1
2022-11-04T13:21:26.880Z,599.4
2022-11-04T13:23:39.748Z,601
2022-11-04T13:24:46.222Z,595.8
2022-11-04T13:25:52.640Z,594.5
2022-11-04T13:26:59.049Z,592.9
2022-11-04T13:28:05.497Z,591.2
2022-11-04T13:29:11.934Z,590.9
2022-11-04T13:30:18.346Z,585.7
2022-11-04T13:31:24.792Z,586.7
2022-11-04T13:32:31.380Z,583.4
2022-11-04T13:33:37.910Z,581
2022-11-04T13:34:44.500Z,578.6
2022-11-04T13:35:51.058Z,578.6
2022-11-04T13:36:57.555Z,576.6
2022-11-04T13:38:04.128Z,582.5
2022-11-04T13:39:10.662Z,580
2022-11-04T13:40:17.226Z,578.2
2022-11-04T13:41:23.813Z,578.8
2022-11-04T13:42:30.436Z,577.4
2022-11-04T13:43:36.875Z,576.1
2022-11-04T13:44:43.426Z,579.5
2022-11-04T13:45:49.985Z,575.7
2022-11-04T13:46:56.817Z,574.1
2022-11-04T13:48:03.609Z,578.3
2022-11-04T13:49:10.360Z,577.8
2022-11-04T13:50:17.190Z,576.3
2022-11-04T13:51:24.004Z,577.2
2022-11-04T13:52:30.761Z,574.8
2022-11-04T13:53:37.516Z,575.6
2022-11-04T13:54:44.315Z,574.4
2022-11-04T13:55:51.158Z,574.4
2022-11-04T13:56:57.922Z,577.1
2022-11-04T13:58:04.693Z,578.1
2022-11-04T13:59:11.528Z,578.1
2022-11-04T14:00:18.270Z,576.2
2022-11-04T14:02:58.221Z,577.9
2022-11-04T14:04:36.933Z,576.8
2022-11-04T14:06:15.674Z,575.5
2022-11-04T14:07:54.401Z,580.7
2022-11-04T14:09:01.663Z,575.2
2022-11-04T14:10:08.931Z,577.9
2022-11-04T14:13:26.403Z,577.5
2022-11-04T14:15:05.140Z,573.5
2022-11-04T14:16:43.863Z,576.8
2022-11-04T14:18:22.680Z,575.8
2022-11-04T14:20:01.353Z,575
2022-11-04T14:21:40.058Z,575.8
2022-11-04T14:25:29.667Z,576
2022-11-04T14:26:36.474Z,576.8
2022-11-04T14:27:42.995Z,571.6
2022-11-04T14:28:49.547Z,573.6
2022-11-04T14:29:56.137Z,574
2022-11-04T14:31:02.665Z,573
2022-11-04T14:32:09.253Z,573.9
2022-11-04T14:33:15.776Z,574.7
2022-11-04T14:34:22.325Z,573.4
2022-11-04T14:36:35.458Z,574.1
2022-11-04T14:37:41.991Z,575.3
2022-11-04T14:38:48.536Z,573.1
2022-11-04T14:39:55.121Z,572
2022-11-04T14:41:01.651Z,571.4
2022-11-04T14:42:08.215Z,573.9
2022-11-04T14:43:14.804Z,571.4
2022-11-04T14:44:21.313Z,573.8
2022-11-04T14:45:27.877Z,572.7
2022-11-04T14:46:34.427Z,571.1
2022-11-04T14:47:40.975Z,570.7
2022-11-04T14:48:47.534Z,573.2
2022-11-04T14:49:54.082Z,570.2
2022-11-04T14:51:00.642Z,574.3
2022-11-04T14:52:07.192Z,569.5
2022-11-04T14:53:13.740Z,571.2
2022-11-04T14:54:20.531Z,570.3
2022-11-04T14:55:27.329Z,571.7
2022-11-04T14:56:34.121Z,572.2
2022-11-04T14:57:40.928Z,574.2
2022-11-04T14:58:47.716Z,569.9
2022-11-04T14:59:54.512Z,570.5
2022-11-04T15:01:01.286Z,575.2
2022-11-04T15:02:08.118Z,569.1
2022-11-04T15:03:14.889Z,570.6
2022-11-04T15:04:21.664Z,572.7
2022-11-04T15:05:28.459Z,569.5
2022-11-04T15:06:35.262Z,570.5
2022-11-04T15:07:42.052Z,567.7
2022-11-04T15:10:22.065Z,570.1
2022-11-04T15:12:00.825Z,567.4
2022-11-04T15:13:39.535Z,570.6
2022-11-04T15:15:18.298Z,567.7
2022-11-04T15:16:25.527Z,565.4
2022-11-04T15:17:32.786Z,567.6
2022-11-04T15:19:11.525Z,569
2022-11-04T15:20:50.261Z,570.6
2022-11-04T15:22:29.004Z,568.5
2022-11-04T15:24:07.729Z,565.8
2022-11-04T15:25:46.461Z,566.8
2022-11-04T15:27:25.203Z,568
2022-11-04T15:29:03.929Z,566.7
2022-11-04T15:32:53.572Z,566
2022-11-04T15:34:00.431Z,565.7
2022-11-04T15:35:07.142Z,566.1
2022-11-04T15:36:13.928Z,567.2
2022-11-04T15:37:20.725Z,568.7
2022-11-04T15:38:27.522Z,567.8
2022-11-04T15:39:34.304Z,567.6
2022-11-04T15:40:41.086Z,567.7
2022-11-04T15:41:47.902Z,564.3
2022-11-04T15:42:54.662Z,564.1
2022-11-04T15:44:01.471Z,567
2022-11-04T15:45:08.241Z,569
2022-11-04T15:46:15.041Z,567.4
2022-11-04T15:47:21.842Z,568.3
2022-11-04T15:48:28.606Z,566.1
2022-11-04T15:49:35.432Z,564
2022-11-04T15:50:42.189Z,562
2022-11-04T15:51:48.981Z,564.3
2022-11-04T15:52:55.763Z,563.5
2022-11-04T15:54:02.575Z,562.6
2022-11-04T15:55:09.361Z,566.3
2022-11-04T15:56:16.133Z,570.4
2022-11-04T15:57:22.925Z,567.4
2022-11-04T15:58:29.747Z,565.5
2022-11-04T15:59:36.507Z,565.9
2022-11-04T16:00:43.293Z,561.6
2022-11-04T16:02:55.488Z,563.7
2022-11-04T16:04:34.237Z,561.7
2022-11-04T16:05:46.563Z,563.6
2022-11-04T16:06:53.816Z,563.7
2022-11-04T16:08:32.533Z,566.3
2022-11-04T16:10:11.257Z,563.1
2022-11-04T16:11:50.011Z,567.6
2022-11-04T16:13:28.729Z,566.3
2022-11-04T16:15:07.509Z,562.8
2022-11-04T16:16:46.201Z,563.9
2022-11-04T16:18:24.928Z,564.5
2022-11-04T16:20:03.674Z,564.9
2022-11-04T16:21:42.392Z,561.4
2022-11-04T16:23:22.146Z,561.2
2022-11-04T16:26:39.575Z,565.6
2022-11-04T16:29:55.101Z,559.2
2022-11-04T16:31:01.546Z,561.7
2022-11-04T16:32:07.979Z,557
2022-11-04T16:33:14.409Z,559.3
2022-11-04T16:34:20.842Z,558.3
2022-11-04T16:35:27.332Z,556.8
2022-11-04T16:36:33.709Z,560.5
2022-11-04T16:37:40.174Z,556.9
2022-11-04T16:38:46.579Z,556.9
2022-11-04T16:39:53.023Z,554
2022-11-04T16:40:59.455Z,553.8
2022-11-04T16:42:05.897Z,557.3
2022-11-04T16:43:12.324Z,553.6
2022-11-04T16:44:18.748Z,554.4
2022-11-04T16:45:25.187Z,553.3
2022-11-04T16:46:31.694Z,553.5
2022-11-04T16:48:44.483Z,550.6
2022-11-04T16:49:50.927Z,555.6
2022-11-04T16:50:57.345Z,552.4
2022-11-04T16:52:03.832Z,551.8
2022-11-04T16:53:10.223Z,553.6
2022-11-04T16:54:16.686Z,550.9
2022-11-04T16:55:23.198Z,551.4
2022-11-04T16:56:29.533Z,549.6
2022-11-04T16:57:36.077Z,554.6
2022-11-04T16:58:42.647Z,552.7
2022-11-04T16:59:49.199Z,554.2
2022-11-04T17:00:55.736Z,553.2
2022-11-04T17:02:02.305Z,553.1
2022-11-04T17:03:08.837Z,555.4
2022-11-04T17:04:15.401Z,551.5
2022-11-04T17:05:21.985Z,556.1
2022-11-04T17:06:28.522Z,551
2022-11-04T17:07:35.042Z,553.1
2022-11-04T17:08:41.588Z,556.9
2022-11-04T17:09:48.132Z,552.6
2022-11-04T17:10:54.685Z,559.8
2022-11-04T17:12:44.005Z,553.9
2022-11-04T17:13:50.770Z,553.2